sensor_id;sensor_type;location;lat;lon;timestamp;temperature;humidity
3756;DHT22;1893;52.526;13.360;2023-05-07T00:02:02;9.00;1.00
3756;DHT22;1893;52.526;13.360;2023-05-07T00:04:29;9.00;1.00
3756;DHT22;1893;52.526;13.360;2023-05-07T00:07:01;9.10;1.00
3756;DHT22;1893;52.526;13.360;2023-05-07T00:09:26;9.00;1.00
3756;DHT22;1893;52.526;13.360;2023-05-07T00:11:52;9.10;1.00
3756;DHT22;1893;52.526;13.360;2023-05-07T00:14:18;9.10;1.00
3756;DHT22;1893;52.526;13.360;2023-05-07T00:16:44;9.10;1.00
3756;DHT22;1893;52.526;13.360;2023-05-07T00:19:09;9.00;1.00
3756;DHT22;1893;52.526;13.360;2023-05-07T00:21:35;9.10;1.00
3756;DHT22;1893;52.526;13.360;2023-05-07T00:24:01;9.10;1.00
3756;DHT22;1893;52.526;13.360;2023-05-07T00:26:26;9.10;99.90
3756;DHT22;1893;52.526;13.360;2023-05-07T00:28:52;9.10;99.90
3756;DHT22;1893;52.526;13.360;2023-05-07T00:31:17;9.10;99.90
3756;DHT22;1893;52.526;13.360;2023-05-07T00:33:43;9.10;99.90
3756;DHT22;1893;52.526;13.360;2023-05-07T00:36:09;9.10;99.90
3756;DHT22;1893;52.526;13.360;2023-05-07T00:38:35;9.00;99.90
3756;DHT22;1893;52.526;13.360;2023-05-07T00:41:00;9.10;99.90
3756;DHT22;1893;52.526;13.360;2023-05-07T00:43:27;9.10;99.90
3756;DHT22;1893;52.526;13.360;2023-05-07T00:45:53;9.10;99.90
3756;DHT22;1893;52.526;13.360;2023-05-07T00:48:19;9.10;99.90
3756;DHT22;1893;52.526;13.360;2023-05-07T00:50:45;9.10;99.90
3756;DHT22;1893;52.526;13.360;2023-05-07T00:53:12;9.10;99.90
3756;DHT22;1893;52.526;13.360;2023-05-07T00:55:38;9.10;99.90
3756;DHT22;1893;52.526;13.360;2023-05-07T00:58:04;9.00;97.70
3756;DHT22;1893;52.526;13.360;2023-05-07T01:00:30;9.00;99.90
3756;DHT22;1893;52.526;13.360;2023-05-07T01:02:55;9.10;99.90
3756;DHT22;1893;52.526;13.360;2023-05-07T01:05:23;9.00;99.90
3756;DHT22;1893;52.526;13.360;2023-05-07T01:07:50;9.10;99.90
3756;DHT22;1893;52.526;13.360;2023-05-07T01:10:17;9.10;99.90
3756;DHT22;1893;52.526;13.360;2023-05-07T01:12:44;9.10;99.90
3756;DHT22;1893;52.526;13.360;2023-05-07T01:15:11;9.10;99.90
3756;DHT22;1893;52.526;13.360;2023-05-07T01:17:38;9.10;99.90
3756;DHT22;1893;52.526;13.360;2023-05-07T01:20:05;9.00;1.00
3756;DHT22;1893;52.526;13.360;2023-05-07T01:22:38;8.90;57.90
3756;DHT22;1893;52.526;13.360;2023-05-07T01:25:07;8.90;99.90
3756;DHT22;1893;52.526;13.360;2023-05-07T01:27:33;8.90;32.00
3756;DHT22;1893;52.526;13.360;2023-05-07T01:30:00;9.10;99.90
3756;DHT22;1893;52.526;13.360;2023-05-07T01:34:59;8.90;1.00
3756;DHT22;1893;52.526;13.360;2023-05-07T01:37:26;8.90;28.60
3756;DHT22;1893;52.526;13.360;2023-05-07T01:39:53;9.00;78.30
3756;DHT22;1893;52.526;13.360;2023-05-07T01:42:19;9.00;76.80
3756;DHT22;1893;52.526;13.360;2023-05-07T01:44:45;9.00;99.90
3756;DHT22;1893;52.526;13.360;2023-05-07T01:47:12;9.00;54.90
3756;DHT22;1893;52.526;13.360;2023-05-07T01:49:38;9.00;1.00
3756;DHT22;1893;52.526;13.360;2023-05-07T01:52:04;9.00;1.00
3756;DHT22;1893;52.526;13.360;2023-05-07T01:54:29;9.00;1.00
3756;DHT22;1893;52.526;13.360;2023-05-07T01:56:58;9.00;1.00
3756;DHT22;1893;52.526;13.360;2023-05-07T01:59:25;9.00;1.00
3756;DHT22;1893;52.526;13.360;2023-05-07T02:01:50;9.00;1.00
3756;DHT22;1893;52.526;13.360;2023-05-07T02:04:17;9.00;1.00
3756;DHT22;1893;52.526;13.360;2023-05-07T02:06:42;9.00;1.00
3756;DHT22;1893;52.526;13.360;2023-05-07T02:09:08;9.00;1.00
3756;DHT22;1893;52.526;13.360;2023-05-07T02:11:36;9.00;1.00
3756;DHT22;1893;52.526;13.360;2023-05-07T02:14:02;9.20;1.00
3756;DHT22;1893;52.526;13.360;2023-05-07T02:16:27;9.00;1.00
3756;DHT22;1893;52.526;13.360;2023-05-07T02:18:53;9.00;1.00
3756;DHT22;1893;52.526;13.360;2023-05-07T02:21:19;9.10;1.00
3756;DHT22;1893;52.526;13.360;2023-05-07T02:23:44;9.00;1.00
3756;DHT22;1893;52.526;13.360;2023-05-07T02:26:11;8.90;1.00
3756;DHT22;1893;52.526;13.360;2023-05-07T02:28:36;9.00;1.00
3756;DHT22;1893;52.526;13.360;2023-05-07T02:31:03;9.00;1.00
3756;DHT22;1893;52.526;13.360;2023-05-07T02:33:28;9.00;1.00
3756;DHT22;1893;52.526;13.360;2023-05-07T02:35:54;8.90;1.00
3756;DHT22;1893;52.526;13.360;2023-05-07T02:38:19;9.00;1.00
3756;DHT22;1893;52.526;13.360;2023-05-07T02:40:45;9.10;1.00
3756;DHT22;1893;52.526;13.360;2023-05-07T02:43:11;9.00;1.00
3756;DHT22;1893;52.526;13.360;2023-05-07T02:45:36;9.00;1.00
3756;DHT22;1893;52.526;13.360;2023-05-07T02:48:03;8.90;1.00
3756;DHT22;1893;52.526;13.360;2023-05-07T02:50:29;9.00;1.00
3756;DHT22;1893;52.526;13.360;2023-05-07T02:52:55;9.00;1.00
3756;DHT22;1893;52.526;13.360;2023-05-07T02:55:21;9.00;99.90
3756;DHT22;1893;52.526;13.360;2023-05-07T02:57:46;8.90;99.90
3756;DHT22;1893;52.526;13.360;2023-05-07T03:00:17;9.00;1.00
3756;DHT22;1893;52.526;13.360;2023-05-07T03:02:46;9.00;1.00
3756;DHT22;1893;52.526;13.360;2023-05-07T03:05:12;9.00;1.00
3756;DHT22;1893;52.526;13.360;2023-05-07T03:07:38;9.00;1.00
3756;DHT22;1893;52.526;13.360;2023-05-07T03:10:04;9.00;1.00
3756;DHT22;1893;52.526;13.360;2023-05-07T03:12:30;9.00;99.90
3756;DHT22;1893;52.526;13.360;2023-05-07T03:14:56;9.00;99.90
3756;DHT22;1893;52.526;13.360;2023-05-07T03:17:22;9.00;99.90
3756;DHT22;1893;52.526;13.360;2023-05-07T03:19:48;9.00;99.90
3756;DHT22;1893;52.526;13.360;2023-05-07T03:22:14;9.00;1.00
3756;DHT22;1893;52.526;13.360;2023-05-07T03:24:40;9.00;99.90
3756;DHT22;1893;52.526;13.360;2023-05-07T03:27:05;9.10;99.90
3756;DHT22;1893;52.526;13.360;2023-05-07T03:29:31;8.90;1.00
3756;DHT22;1893;52.526;13.360;2023-05-07T03:31:56;9.00;8.70
3756;DHT22;1893;52.526;13.360;2023-05-07T03:34:22;9.10;1.00
3756;DHT22;1893;52.526;13.360;2023-05-07T03:36:48;8.90;1.00
3756;DHT22;1893;52.526;13.360;2023-05-07T03:39:14;8.90;1.00
3756;DHT22;1893;52.526;13.360;2023-05-07T03:41:40;8.90;1.00
3756;DHT22;1893;52.526;13.360;2023-05-07T03:44:05;8.90;73.00
3756;DHT22;1893;52.526;13.360;2023-05-07T03:46:33;8.90;99.90
3756;DHT22;1893;52.526;13.360;2023-05-07T03:48:58;9.00;99.90
3756;DHT22;1893;52.526;13.360;2023-05-07T03:51:24;9.00;74.90
3756;DHT22;1893;52.526;13.360;2023-05-07T03:53:51;9.00;99.90
3756;DHT22;1893;52.526;13.360;2023-05-07T03:56:19;9.00;99.90
3756;DHT22;1893;52.526;13.360;2023-05-07T03:58:45;9.00;99.90
3756;DHT22;1893;52.526;13.360;2023-05-07T04:01:11;8.90;99.90
3756;DHT22;1893;52.526;13.360;2023-05-07T04:03:36;8.90;99.90
3756;DHT22;1893;52.526;13.360;2023-05-07T04:06:02;8.80;1.00
3756;DHT22;1893;52.526;13.360;2023-05-07T04:08:28;8.90;1.00
3756;DHT22;1893;52.526;13.360;2023-05-07T04:10:58;8.90;1.00
3756;DHT22;1893;52.526;13.360;2023-05-07T04:13:24;8.90;1.00
3756;DHT22;1893;52.526;13.360;2023-05-07T04:15:50;8.90;1.00
3756;DHT22;1893;52.526;13.360;2023-05-07T04:18:16;8.80;1.00
3756;DHT22;1893;52.526;13.360;2023-05-07T04:20:42;8.90;1.00
3756;DHT22;1893;52.526;13.360;2023-05-07T04:23:07;8.90;1.00
3756;DHT22;1893;52.526;13.360;2023-05-07T04:25:33;8.90;1.00
3756;DHT22;1893;52.526;13.360;2023-05-07T04:27:59;8.90;99.90
3756;DHT22;1893;52.526;13.360;2023-05-07T04:30:25;8.90;99.90
3756;DHT22;1893;52.526;13.360;2023-05-07T04:32:50;8.90;99.90
3756;DHT22;1893;52.526;13.360;2023-05-07T04:35:16;8.90;99.90
3756;DHT22;1893;52.526;13.360;2023-05-07T04:37:42;8.90;99.90
3756;DHT22;1893;52.526;13.360;2023-05-07T04:40:08;8.90;99.90
3756;DHT22;1893;52.526;13.360;2023-05-07T04:42:34;9.00;99.90
3756;DHT22;1893;52.526;13.360;2023-05-07T04:44:59;8.90;24.30
3756;DHT22;1893;52.526;13.360;2023-05-07T04:47:26;9.00;1.00
3756;DHT22;1893;52.526;13.360;2023-05-07T04:49:51;9.00;1.00
3756;DHT22;1893;52.526;13.360;2023-05-07T04:52:17;9.00;1.00
3756;DHT22;1893;52.526;13.360;2023-05-07T04:54:43;9.00;1.00
3756;DHT22;1893;52.526;13.360;2023-05-07T04:57:08;9.00;1.00
3756;DHT22;1893;52.526;13.360;2023-05-07T04:59:34;9.10;1.00
3756;DHT22;1893;52.526;13.360;2023-05-07T05:01:59;9.10;99.90
3756;DHT22;1893;52.526;13.360;2023-05-07T05:04:25;9.10;76.40
3756;DHT22;1893;52.526;13.360;2023-05-07T05:06:51;9.10;1.00
3756;DHT22;1893;52.526;13.360;2023-05-07T05:09:16;9.10;1.00
3756;DHT22;1893;52.526;13.360;2023-05-07T05:11:42;9.20;1.00
3756;DHT22;1893;52.526;13.360;2023-05-07T05:14:08;9.20;1.00
3756;DHT22;1893;52.526;13.360;2023-05-07T05:16:34;9.30;1.00
3756;DHT22;1893;52.526;13.360;2023-05-07T05:19:00;9.20;99.90
3756;DHT22;1893;52.526;13.360;2023-05-07T05:21:26;9.30;99.90
3756;DHT22;1893;52.526;13.360;2023-05-07T05:23:52;9.20;99.90
3756;DHT22;1893;52.526;13.360;2023-05-07T05:26:17;9.30;99.90
3756;DHT22;1893;52.526;13.360;2023-05-07T05:28:43;9.30;99.90
3756;DHT22;1893;52.526;13.360;2023-05-07T05:31:10;9.40;99.90
3756;DHT22;1893;52.526;13.360;2023-05-07T05:33:35;9.40;99.90
3756;DHT22;1893;52.526;13.360;2023-05-07T05:36:01;9.40;99.90
3756;DHT22;1893;52.526;13.360;2023-05-07T05:38:27;9.30;99.90
3756;DHT22;1893;52.526;13.360;2023-05-07T05:40:52;9.40;99.90
3756;DHT22;1893;52.526;13.360;2023-05-07T05:43:18;9.30;99.90
3756;DHT22;1893;52.526;13.360;2023-05-07T05:45:43;9.40;99.90
3756;DHT22;1893;52.526;13.360;2023-05-07T05:48:09;9.50;99.90
3756;DHT22;1893;52.526;13.360;2023-05-07T05:50:35;9.50;99.90
3756;DHT22;1893;52.526;13.360;2023-05-07T05:53:04;9.40;99.90
3756;DHT22;1893;52.526;13.360;2023-05-07T05:55:30;9.50;99.90
3756;DHT22;1893;52.526;13.360;2023-05-07T05:57:58;9.60;99.90
3756;DHT22;1893;52.526;13.360;2023-05-07T06:00:23;9.90;99.90
3756;DHT22;1893;52.526;13.360;2023-05-07T06:02:49;9.80;99.90
3756;DHT22;1893;52.526;13.360;2023-05-07T06:05:15;9.90;99.90
3756;DHT22;1893;52.526;13.360;2023-05-07T06:07:40;9.80;99.90
3756;DHT22;1893;52.526;13.360;2023-05-07T06:10:06;9.80;99.90
3756;DHT22;1893;52.526;13.360;2023-05-07T06:12:32;9.80;99.90
3756;DHT22;1893;52.526;13.360;2023-05-07T06:14:58;9.90;99.90
3756;DHT22;1893;52.526;13.360;2023-05-07T06:17:23;9.90;99.90
3756;DHT22;1893;52.526;13.360;2023-05-07T06:19:49;9.90;99.90
3756;DHT22;1893;52.526;13.360;2023-05-07T06:22:15;9.90;99.90
3756;DHT22;1893;52.526;13.360;2023-05-07T06:24:40;10.00;99.90
3756;DHT22;1893;52.526;13.360;2023-05-07T06:27:06;10.00;99.90
3756;DHT22;1893;52.526;13.360;2023-05-07T06:29:32;9.90;99.90
3756;DHT22;1893;52.526;13.360;2023-05-07T06:32:10;9.90;99.90
3756;DHT22;1893;52.526;13.360;2023-05-07T06:34:36;9.90;99.90
3756;DHT22;1893;52.526;13.360;2023-05-07T06:37:02;10.10;99.90
3756;DHT22;1893;52.526;13.360;2023-05-07T06:39:28;10.20;99.90
3756;DHT22;1893;52.526;13.360;2023-05-07T06:41:53;10.20;99.90
3756;DHT22;1893;52.526;13.360;2023-05-07T06:44:19;10.30;99.90
3756;DHT22;1893;52.526;13.360;2023-05-07T06:46:45;10.30;99.90
3756;DHT22;1893;52.526;13.360;2023-05-07T06:49:12;10.20;99.90
3756;DHT22;1893;52.526;13.360;2023-05-07T06:51:38;10.40;99.90
3756;DHT22;1893;52.526;13.360;2023-05-07T06:54:03;10.50;99.90
3756;DHT22;1893;52.526;13.360;2023-05-07T06:56:33;10.50;99.90
3756;DHT22;1893;52.526;13.360;2023-05-07T06:59:00;10.70;99.90
3756;DHT22;1893;52.526;13.360;2023-05-07T07:01:26;10.70;99.90
3756;DHT22;1893;52.526;13.360;2023-05-07T07:03:51;10.80;99.90
3756;DHT22;1893;52.526;13.360;2023-05-07T07:06:17;11.00;99.90
3756;DHT22;1893;52.526;13.360;2023-05-07T07:08:43;11.10;99.90
3756;DHT22;1893;52.526;13.360;2023-05-07T07:11:09;11.10;99.90
3756;DHT22;1893;52.526;13.360;2023-05-07T07:13:35;11.30;99.90
3756;DHT22;1893;52.526;13.360;2023-05-07T07:16:01;11.50;99.90
3756;DHT22;1893;52.526;13.360;2023-05-07T07:18:26;11.50;99.90
3756;DHT22;1893;52.526;13.360;2023-05-07T07:20:52;11.40;99.90
3756;DHT22;1893;52.526;13.360;2023-05-07T07:23:18;11.70;99.90
3756;DHT22;1893;52.526;13.360;2023-05-07T07:25:43;12.40;99.90
3756;DHT22;1893;52.526;13.360;2023-05-07T07:28:09;13.40;99.90
3756;DHT22;1893;52.526;13.360;2023-05-07T07:30:36;13.80;99.90
3756;DHT22;1893;52.526;13.360;2023-05-07T07:33:02;14.10;99.90
3756;DHT22;1893;52.526;13.360;2023-05-07T07:35:29;14.20;99.90
3756;DHT22;1893;52.526;13.360;2023-05-07T07:37:55;14.40;99.90
3756;DHT22;1893;52.526;13.360;2023-05-07T07:40:21;14.80;99.90
3756;DHT22;1893;52.526;13.360;2023-05-07T07:42:46;15.00;99.90
3756;DHT22;1893;52.526;13.360;2023-05-07T07:45:12;15.10;99.90
3756;DHT22;1893;52.526;13.360;2023-05-07T07:47:39;15.50;99.90
3756;DHT22;1893;52.526;13.360;2023-05-07T07:50:05;15.00;99.90
3756;DHT22;1893;52.526;13.360;2023-05-07T07:52:31;15.00;99.90
3756;DHT22;1893;52.526;13.360;2023-05-07T07:54:56;15.00;99.90
3756;DHT22;1893;52.526;13.360;2023-05-07T07:57:22;15.40;99.90
3756;DHT22;1893;52.526;13.360;2023-05-07T07:59:47;15.70;99.90
3756;DHT22;1893;52.526;13.360;2023-05-07T08:02:13;15.60;99.90
3756;DHT22;1893;52.526;13.360;2023-05-07T08:04:39;15.80;99.90
3756;DHT22;1893;52.526;13.360;2023-05-07T08:07:04;15.50;99.90
3756;DHT22;1893;52.526;13.360;2023-05-07T08:09:31;15.10;99.90
3756;DHT22;1893;52.526;13.360;2023-05-07T08:11:57;15.30;99.90
3756;DHT22;1893;52.526;13.360;2023-05-07T08:14:22;15.40;99.90
3756;DHT22;1893;52.526;13.360;2023-05-07T08:16:48;15.40;99.90
3756;DHT22;1893;52.526;13.360;2023-05-07T08:19:13;15.30;99.90
3756;DHT22;1893;52.526;13.360;2023-05-07T08:21:40;15.30;99.90
3756;DHT22;1893;52.526;13.360;2023-05-07T08:24:06;15.70;99.90
3756;DHT22;1893;52.526;13.360;2023-05-07T08:26:31;16.00;99.90
3756;DHT22;1893;52.526;13.360;2023-05-07T08:28:57;16.30;99.90
3756;DHT22;1893;52.526;13.360;2023-05-07T08:31:23;16.30;99.90
3756;DHT22;1893;52.526;13.360;2023-05-07T08:33:48;16.20;99.90
3756;DHT22;1893;52.526;13.360;2023-05-07T08:36:14;16.00;99.90
3756;DHT22;1893;52.526;13.360;2023-05-07T08:38:39;16.10;99.90
3756;DHT22;1893;52.526;13.360;2023-05-07T08:41:10;16.60;99.90
3756;DHT22;1893;52.526;13.360;2023-05-07T08:43:38;17.10;99.90
3756;DHT22;1893;52.526;13.360;2023-05-07T08:46:05;17.30;99.90
3756;DHT22;1893;52.526;13.360;2023-05-07T08:48:32;17.50;99.90
3756;DHT22;1893;52.526;13.360;2023-05-07T08:50:58;17.10;99.90
3756;DHT22;1893;52.526;13.360;2023-05-07T08:53:24;17.40;99.90
3756;DHT22;1893;52.526;13.360;2023-05-07T08:55:51;17.20;99.90
3756;DHT22;1893;52.526;13.360;2023-05-07T08:58:17;16.90;99.90
3756;DHT22;1893;52.526;13.360;2023-05-07T09:00:42;16.30;99.90
3756;DHT22;1893;52.526;13.360;2023-05-07T09:03:08;16.20;99.90
3756;DHT22;1893;52.526;13.360;2023-05-07T09:05:37;16.70;99.90
3756;DHT22;1893;52.526;13.360;2023-05-07T09:08:03;17.00;99.90
3756;DHT22;1893;52.526;13.360;2023-05-07T09:10:29;17.20;99.90
3756;DHT22;1893;52.526;13.360;2023-05-07T09:12:55;17.30;99.90
3756;DHT22;1893;52.526;13.360;2023-05-07T09:15:20;18.00;99.90
3756;DHT22;1893;52.526;13.360;2023-05-07T09:17:46;18.20;99.90
3756;DHT22;1893;52.526;13.360;2023-05-07T09:20:12;17.90;99.90
3756;DHT22;1893;52.526;13.360;2023-05-07T09:22:38;17.30;99.90
3756;DHT22;1893;52.526;13.360;2023-05-07T09:25:05;17.00;99.90
3756;DHT22;1893;52.526;13.360;2023-05-07T09:27:31;16.50;99.90
3756;DHT22;1893;52.526;13.360;2023-05-07T09:29:57;16.00;99.90
3756;DHT22;1893;52.526;13.360;2023-05-07T09:32:22;16.70;99.90
3756;DHT22;1893;52.526;13.360;2023-05-07T09:34:48;17.50;99.90
3756;DHT22;1893;52.526;13.360;2023-05-07T09:37:13;17.70;99.90
3756;DHT22;1893;52.526;13.360;2023-05-07T09:39:47;17.90;99.90
3756;DHT22;1893;52.526;13.360;2023-05-07T09:42:13;18.40;99.90
3756;DHT22;1893;52.526;13.360;2023-05-07T09:44:41;18.50;99.90
3756;DHT22;1893;52.526;13.360;2023-05-07T09:47:07;18.70;99.90
3756;DHT22;1893;52.526;13.360;2023-05-07T09:49:35;18.40;99.90
3756;DHT22;1893;52.526;13.360;2023-05-07T09:52:03;17.50;99.90
3756;DHT22;1893;52.526;13.360;2023-05-07T09:54:35;16.70;99.90
3756;DHT22;1893;52.526;13.360;2023-05-07T09:57:04;16.70;99.90
3756;DHT22;1893;52.526;13.360;2023-05-07T09:59:32;17.60;99.90
3756;DHT22;1893;52.526;13.360;2023-05-07T10:02:00;16.80;99.90
3756;DHT22;1893;52.526;13.360;2023-05-07T10:04:27;15.80;99.90
3756;DHT22;1893;52.526;13.360;2023-05-07T10:06:53;16.70;99.90
3756;DHT22;1893;52.526;13.360;2023-05-07T10:09:21;17.30;99.90
3756;DHT22;1893;52.526;13.360;2023-05-07T10:11:49;18.30;99.90
3756;DHT22;1893;52.526;13.360;2023-05-07T10:14:15;18.90;99.90
3756;DHT22;1893;52.526;13.360;2023-05-07T10:16:41;18.50;99.90
3756;DHT22;1893;52.526;13.360;2023-05-07T10:19:10;17.90;99.90
3756;DHT22;1893;52.526;13.360;2023-05-07T10:21:36;17.30;99.90
3756;DHT22;1893;52.526;13.360;2023-05-07T10:24:27;16.70;99.90
3756;DHT22;1893;52.526;13.360;2023-05-07T10:26:55;16.80;99.90
3756;DHT22;1893;52.526;13.360;2023-05-07T10:35:02;16.20;99.90
3756;DHT22;1893;52.526;13.360;2023-05-07T10:37:29;15.90;99.90
3756;DHT22;1893;52.526;13.360;2023-05-07T10:39:55;16.70;99.90
3756;DHT22;1893;52.526;13.360;2023-05-07T10:42:20;17.80;99.90
3756;DHT22;1893;52.526;13.360;2023-05-07T10:44:46;18.10;99.90
3756;DHT22;1893;52.526;13.360;2023-05-07T10:47:16;17.70;99.90
3756;DHT22;1893;52.526;13.360;2023-05-07T10:52:19;17.70;99.90
3756;DHT22;1893;52.526;13.360;2023-05-07T10:54:45;16.70;99.90
3756;DHT22;1893;52.526;13.360;2023-05-07T10:57:44;16.20;99.90
3756;DHT22;1893;52.526;13.360;2023-05-07T11:05:26;17.40;99.90
3756;DHT22;1893;52.526;13.360;2023-05-07T11:08:01;17.60;99.90
3756;DHT22;1893;52.526;13.360;2023-05-07T11:13:19;16.60;99.90
3756;DHT22;1893;52.526;13.360;2023-05-07T11:16:04;16.40;99.90
3756;DHT22;1893;52.526;13.360;2023-05-07T11:18:49;16.50;99.90
3756;DHT22;1893;52.526;13.360;2023-05-07T11:21:35;17.20;99.90
3756;DHT22;1893;52.526;13.360;2023-05-07T11:24:02;17.60;99.90
3756;DHT22;1893;52.526;13.360;2023-05-07T11:26:31;18.10;99.90
3756;DHT22;1893;52.526;13.360;2023-05-07T11:29:13;18.20;99.90
3756;DHT22;1893;52.526;13.360;2023-05-07T11:31:39;16.90;99.90
3756;DHT22;1893;52.526;13.360;2023-05-07T11:34:05;16.70;99.90
3756;DHT22;1893;52.526;13.360;2023-05-07T11:36:32;16.90;99.90
3756;DHT22;1893;52.526;13.360;2023-05-07T11:38:58;16.90;99.90
3756;DHT22;1893;52.526;13.360;2023-05-07T11:41:34;17.20;99.90
3756;DHT22;1893;52.526;13.360;2023-05-07T11:44:01;17.60;99.90
3756;DHT22;1893;52.526;13.360;2023-05-07T11:46:27;17.50;99.90
3756;DHT22;1893;52.526;13.360;2023-05-07T11:48:53;18.10;99.90
3756;DHT22;1893;52.526;13.360;2023-05-07T11:51:21;18.50;99.90
3756;DHT22;1893;52.526;13.360;2023-05-07T11:53:47;18.20;99.90
3756;DHT22;1893;52.526;13.360;2023-05-07T11:56:15;17.50;99.90
3756;DHT22;1893;52.526;13.360;2023-05-07T11:58:41;17.20;99.90
3756;DHT22;1893;52.526;13.360;2023-05-07T12:01:08;17.20;99.90
3756;DHT22;1893;52.526;13.360;2023-05-07T12:03:35;17.00;99.90
3756;DHT22;1893;52.526;13.360;2023-05-07T12:06:02;16.80;99.90
3756;DHT22;1893;52.526;13.360;2023-05-07T12:08:30;16.50;99.90
3756;DHT22;1893;52.526;13.360;2023-05-07T12:10:56;16.30;99.90
3756;DHT22;1893;52.526;13.360;2023-05-07T12:13:23;16.40;99.90
3756;DHT22;1893;52.526;13.360;2023-05-07T12:15:54;16.70;99.90
3756;DHT22;1893;52.526;13.360;2023-05-07T12:18:21;16.50;99.90
3756;DHT22;1893;52.526;13.360;2023-05-07T12:20:47;16.20;99.90
3756;DHT22;1893;52.526;13.360;2023-05-07T12:23:14;16.40;99.90
3756;DHT22;1893;52.526;13.360;2023-05-07T12:25:41;16.80;99.90
3756;DHT22;1893;52.526;13.360;2023-05-07T12:28:18;17.40;99.90
3756;DHT22;1893;52.526;13.360;2023-05-07T12:30:45;17.80;99.90
3756;DHT22;1893;52.526;13.360;2023-05-07T12:33:11;17.70;99.90
3756;DHT22;1893;52.526;13.360;2023-05-07T12:35:40;17.50;99.90
3756;DHT22;1893;52.526;13.360;2023-05-07T12:38:10;17.50;99.90
3756;DHT22;1893;52.526;13.360;2023-05-07T12:40:39;17.50;99.90
3756;DHT22;1893;52.526;13.360;2023-05-07T12:43:04;17.30;99.90
3756;DHT22;1893;52.526;13.360;2023-05-07T12:45:30;17.20;99.90
3756;DHT22;1893;52.526;13.360;2023-05-07T12:47:57;16.50;99.90
3756;DHT22;1893;52.526;13.360;2023-05-07T12:50:26;16.20;99.90
3756;DHT22;1893;52.526;13.360;2023-05-07T12:52:55;16.40;99.90
3756;DHT22;1893;52.526;13.360;2023-05-07T12:55:21;16.60;99.90
3756;DHT22;1893;52.526;13.360;2023-05-07T12:57:50;16.90;99.90
3756;DHT22;1893;52.526;13.360;2023-05-07T13:00:17;17.10;99.90
3756;DHT22;1893;52.526;13.360;2023-05-07T13:02:44;17.00;99.90
3756;DHT22;1893;52.526;13.360;2023-05-07T13:05:12;16.90;99.90
3756;DHT22;1893;52.526;13.360;2023-05-07T13:07:38;17.20;99.90
3756;DHT22;1893;52.526;13.360;2023-05-07T13:10:04;17.20;99.90
3756;DHT22;1893;52.526;13.360;2023-05-07T13:12:30;17.30;99.90
3756;DHT22;1893;52.526;13.360;2023-05-07T13:14:55;17.20;99.90
3756;DHT22;1893;52.526;13.360;2023-05-07T13:17:21;17.10;99.90
3756;DHT22;1893;52.526;13.360;2023-05-07T13:19:47;16.70;99.90
3756;DHT22;1893;52.526;13.360;2023-05-07T13:22:12;16.50;99.90
3756;DHT22;1893;52.526;13.360;2023-05-07T13:24:38;16.20;99.90
3756;DHT22;1893;52.526;13.360;2023-05-07T13:27:06;16.40;99.90
3756;DHT22;1893;52.526;13.360;2023-05-07T13:29:32;16.40;99.90
3756;DHT22;1893;52.526;13.360;2023-05-07T13:31:58;16.30;99.90
3756;DHT22;1893;52.526;13.360;2023-05-07T13:34:23;16.10;99.90
3756;DHT22;1893;52.526;13.360;2023-05-07T13:36:49;16.10;99.90
3756;DHT22;1893;52.526;13.360;2023-05-07T13:39:15;16.40;99.90
3756;DHT22;1893;52.526;13.360;2023-05-07T13:41:41;16.40;99.90
3756;DHT22;1893;52.526;13.360;2023-05-07T13:44:07;16.60;99.90
3756;DHT22;1893;52.526;13.360;2023-05-07T13:46:32;16.70;99.90
3756;DHT22;1893;52.526;13.360;2023-05-07T13:48:58;16.60;99.90
3756;DHT22;1893;52.526;13.360;2023-05-07T13:51:24;16.70;99.90
3756;DHT22;1893;52.526;13.360;2023-05-07T13:53:49;16.70;99.90
3756;DHT22;1893;52.526;13.360;2023-05-07T13:56:15;16.70;99.90
3756;DHT22;1893;52.526;13.360;2023-05-07T13:58:41;16.50;99.90
3756;DHT22;1893;52.526;13.360;2023-05-07T14:01:06;16.40;99.90
3756;DHT22;1893;52.526;13.360;2023-05-07T14:03:32;16.40;99.90
3756;DHT22;1893;52.526;13.360;2023-05-07T14:05:59;16.30;99.90
3756;DHT22;1893;52.526;13.360;2023-05-07T14:08:27;16.40;99.90
3756;DHT22;1893;52.526;13.360;2023-05-07T14:10:52;16.30;99.90
3756;DHT22;1893;52.526;13.360;2023-05-07T14:13:18;16.40;99.90
3756;DHT22;1893;52.526;13.360;2023-05-07T14:15:44;16.30;99.90
3756;DHT22;1893;52.526;13.360;2023-05-07T14:18:14;16.40;99.90
3756;DHT22;1893;52.526;13.360;2023-05-07T14:20:40;16.20;99.90
3756;DHT22;1893;52.526;13.360;2023-05-07T14:23:06;16.10;99.90
3756;DHT22;1893;52.526;13.360;2023-05-07T14:25:31;16.00;99.90
3756;DHT22;1893;52.526;13.360;2023-05-07T14:27:57;15.90;99.90
3756;DHT22;1893;52.526;13.360;2023-05-07T14:30:23;15.90;99.90
3756;DHT22;1893;52.526;13.360;2023-05-07T14:32:50;16.00;99.90
3756;DHT22;1893;52.526;13.360;2023-05-07T14:35:16;16.00;99.90
3756;DHT22;1893;52.526;13.360;2023-05-07T14:37:42;16.20;99.90
3756;DHT22;1893;52.526;13.360;2023-05-07T14:40:08;16.20;99.90
3756;DHT22;1893;52.526;13.360;2023-05-07T14:42:34;16.10;99.90
3756;DHT22;1893;52.526;13.360;2023-05-07T14:45:00;15.90;99.90
3756;DHT22;1893;52.526;13.360;2023-05-07T14:47:25;15.70;99.90
3756;DHT22;1893;52.526;13.360;2023-05-07T14:49:51;15.80;99.90
3756;DHT22;1893;52.526;13.360;2023-05-07T14:52:16;15.90;99.90
3756;DHT22;1893;52.526;13.360;2023-05-07T14:54:42;16.00;99.90
3756;DHT22;1893;52.526;13.360;2023-05-07T14:57:08;16.00;99.90
3756;DHT22;1893;52.526;13.360;2023-05-07T14:59:35;15.80;99.90
3756;DHT22;1893;52.526;13.360;2023-05-07T15:02:01;15.60;99.90
3756;DHT22;1893;52.526;13.360;2023-05-07T15:04:27;15.50;99.90
3756;DHT22;1893;52.526;13.360;2023-05-07T15:06:52;15.70;99.90
3756;DHT22;1893;52.526;13.360;2023-05-07T15:09:21;16.10;99.90
3756;DHT22;1893;52.526;13.360;2023-05-07T15:11:46;16.70;99.90
3756;DHT22;1893;52.526;13.360;2023-05-07T15:14:12;17.20;99.90
3756;DHT22;1893;52.526;13.360;2023-05-07T15:16:38;17.90;99.90
3756;DHT22;1893;52.526;13.360;2023-05-07T15:19:03;18.40;99.90
3756;DHT22;1893;52.526;13.360;2023-05-07T15:21:29;17.80;99.90
3756;DHT22;1893;52.526;13.360;2023-05-07T15:23:56;17.70;99.90
3756;DHT22;1893;52.526;13.360;2023-05-07T15:26:21;17.50;99.90
3756;DHT22;1893;52.526;13.360;2023-05-07T15:28:47;17.30;99.90
3756;DHT22;1893;52.526;13.360;2023-05-07T15:31:13;17.20;99.90
3756;DHT22;1893;52.526;13.360;2023-05-07T15:33:38;16.70;99.90
3756;DHT22;1893;52.526;13.360;2023-05-07T15:36:04;16.40;99.90
3756;DHT22;1893;52.526;13.360;2023-05-07T15:38:31;16.20;99.90
3756;DHT22;1893;52.526;13.360;2023-05-07T15:40:56;16.20;99.90
3756;DHT22;1893;52.526;13.360;2023-05-07T15:43:22;16.00;99.90
3756;DHT22;1893;52.526;13.360;2023-05-07T15:45:48;16.10;99.90
3756;DHT22;1893;52.526;13.360;2023-05-07T15:48:13;16.10;99.90
3756;DHT22;1893;52.526;13.360;2023-05-07T15:50:39;16.10;99.90
3756;DHT22;1893;52.526;13.360;2023-05-07T15:53:05;16.00;99.90
3756;DHT22;1893;52.526;13.360;2023-05-07T15:55:31;15.90;99.90
3756;DHT22;1893;52.526;13.360;2023-05-07T15:57:57;15.70;99.90
3756;DHT22;1893;52.526;13.360;2023-05-07T16:00:25;15.50;99.90
3756;DHT22;1893;52.526;13.360;2023-05-07T16:02:52;15.40;99.90
3756;DHT22;1893;52.526;13.360;2023-05-07T16:05:18;15.30;99.90
3756;DHT22;1893;52.526;13.360;2023-05-07T16:07:43;15.30;99.90
3756;DHT22;1893;52.526;13.360;2023-05-07T16:10:10;15.40;99.90